Time;durP1;ratioP1;P1;durP2;ratioP2;P2;SDS_P1;SDS_P2;PMS_P1;PMS_P2;Temp;Humidity;BMP_temperature;BMP_pressure;BME280_temperature;BME280_humidity;BME280_pressure;Samples;Min_cycle;Max_cycle;Signal;HPM_P1;HPM_P2
2022/08/19 00:35:16;;;;;;;7.25;6.55;;;14.50;99.90;;;;;;4899711;29;20084;-79
2022/08/19 00:37:43;;;;;;;7.50;6.80;;;14.40;99.90;;;;;;4895532;29;20438;-79
2022/08/19 00:40:10;;;;;;;7.30;6.60;;;14.50;99.90;;;;;;4880414;29;20512;-79
2022/08/19 00:42:37;;;;;;;8.75;7.82;;;14.40;99.90;;;;;;4877068;29;20045;-79
2022/08/19 00:45:11;;;;;;;7.43;6.68;;;14.40;99.90;;;;;;4880259;29;20473;-79
2022/08/19 00:47:37;;;;;;;7.15;6.45;;;14.40;99.90;;;;;;4880719;29;20076;-79
2022/08/19 00:50:04;;;;;;;8.38;7.55;;;14.30;99.90;;;;;;4906096;29;20056;-79
2022/08/19 00:52:33;;;;;;;8.23;7.22;;;14.30;99.90;;;;;;4882444;29;20068;-79
2022/08/19 00:54:59;;;;;;;8.40;7.60;;;14.30;99.90;;;;;;4891512;29;20099;-79
2022/08/19 00:57:34;;;;;;;8.25;7.45;;;14.30;99.90;;;;;;4893207;29;20429;-79
2022/08/19 01:00:02;;;;;;;6.80;6.20;;;14.30;99.90;;;;;;4902910;29;20036;-79
2022/08/19 01:02:29;;;;;;;6.20;5.60;;;14.30;99.90;;;;;;4890648;29;20096;-79
2022/08/19 01:04:55;;;;;;;7.28;6.57;;;14.20;99.90;;;;;;4910665;29;20078;-79
2022/08/19 01:07:21;;;;;;;7.38;6.68;;;14.20;99.90;;;;;;4913283;29;20047;-79
2022/08/19 01:09:47;;;;;;;7.32;6.63;;;14.20;99.90;;;;;;4893278;29;20228;-79
2022/08/19 01:12:13;;;;;;;7.93;7.15;;;14.20;99.90;;;;;;4888373;29;20037;-79
2022/08/19 01:18:16;;;;;;;7.35;6.65;;;14.10;99.90;;;;;;4909704;29;20099;-79
2022/08/19 01:20:42;;;;;;;8.02;7.18;;;14.10;99.90;;;;;;4892409;29;20445;-79
2022/08/19 01:23:08;;;;;;;8.52;7.47;;;14.10;99.90;;;;;;4883237;29;20037;-79
2022/08/19 01:25:47;;;;;;;7.97;7.18;;;14.10;99.90;;;;;;4899139;29;20190;-79
2022/08/19 01:28:23;;;;;;;8.80;7.90;;;14.10;99.90;;;;;;4904131;29;20544;-79
2022/08/19 01:30:49;;;;;;;8.98;7.85;;;14.00;99.90;;;;;;4900411;29;20051;-79
2022/08/19 01:33:15;;;;;;;8.35;7.55;;;14.00;99.90;;;;;;4883311;29;20040;-79
2022/08/19 01:35:41;;;;;;;8.07;7.07;;;14.00;99.90;;;;;;4883229;29;20127;-79
2022/08/19 01:38:10;;;;;;;7.15;6.45;;;14.00;99.90;;;;;;4890205;29;20506;-79
2022/08/19 01:40:39;;;;;;;7.55;6.85;;;14.00;99.90;;;;;;4884340;29;20393;-79
2022/08/19 01:43:05;;;;;;;7.68;6.88;;;14.00;99.90;;;;;;4905781;29;20073;-79
2022/08/19 01:45:33;;;;;;;8.20;7.40;;;13.90;99.90;;;;;;4883246;29;20087;-79
2022/08/19 01:48:00;;;;;;;7.22;6.53;;;13.90;99.90;;;;;;4901507;29;20047;-79
2022/08/19 01:50:27;;;;;;;6.78;6.10;;;13.90;99.90;;;;;;4906080;29;20103;-79
2022/08/19 01:52:53;;;;;;;6.28;5.68;;;13.90;99.90;;;;;;4881676;29;20032;-79
2022/08/19 01:55:20;;;;;;;6.65;5.95;;;13.90;99.90;;;;;;4905581;29;20036;-79
2022/08/19 01:57:55;;;;;;;5.40;4.90;;;13.80;99.90;;;;;;4907680;29;20044;-80
2022/08/19 02:00:24;;;;;;;5.25;4.75;;;13.80;99.90;;;;;;4884106;29;20040;-80
2022/08/19 02:02:49;;;;;;;5.80;5.20;;;13.80;99.90;;;;;;4901095;29;20039;-79
2022/08/19 02:05:17;;;;;;;6.10;5.47;;;13.70;99.90;;;;;;4888541;29;20489;-80
2022/08/19 02:07:44;;;;;;;5.18;4.68;;;13.70;99.90;;;;;;4884819;29;20505;-79
2022/08/19 02:10:17;;;;;;;5.10;4.60;;;13.70;99.90;;;;;;4887601;29;20498;-79
2022/08/19 02:12:43;;;;;;;5.35;4.85;;;13.70;99.90;;;;;;4880675;29;20037;-80
2022/08/19 02:15:09;;;;;;;5.35;4.82;;;13.60;99.90;;;;;;4882635;29;20057;-80
2022/08/19 02:17:35;;;;;;;5.10;4.40;;;13.60;99.90;;;;;;4898066;29;20036;-80
2022/08/19 02:20:01;;;;;;;6.15;5.55;;;13.60;99.90;;;;;;4908183;29;20473;-80
2022/08/19 02:22:26;;;;;;;6.40;5.80;;;13.50;99.90;;;;;;4897983;29;20481;-80
2022/08/19 02:24:53;;;;;;;7.38;6.45;;;13.50;99.90;;;;;;4914139;29;20052;-81
2022/08/19 02:27:19;;;;;;;8.68;7.15;;;13.50;99.90;;;;;;4881385;29;20052;-80
2022/08/19 02:29:47;;;;;;;7.32;6.63;;;13.50;99.90;;;;;;4906317;29;20044;-80
2022/08/19 02:32:13;;;;;;;7.25;6.55;;;13.50;99.90;;;;;;4887457;29;20051;-80
2022/08/19 02:34:39;;;;;;;8.00;6.82;;;13.50;99.90;;;;;;4883008;29;20032;-79
2022/08/19 02:37:05;;;;;;;6.50;5.90;;;13.50;99.90;;;;;;4907252;29;20043;-79
2022/08/19 02:39:30;;;;;;;7.38;6.68;;;13.50;99.90;;;;;;4905101;29;20052;-79
2022/08/19 02:41:56;;;;;;;7.68;6.35;;;13.40;99.90;;;;;;4889344;29;20036;-79
2022/08/19 02:44:22;;;;;;;7.07;6.38;;;13.40;99.90;;;;;;4881995;29;20053;-79
2022/08/19 02:46:49;;;;;;;7.07;6.13;;;13.30;99.90;;;;;;4881929;29;20049;-80
2022/08/19 02:49:16;;;;;;;7.45;6.75;;;13.40;99.90;;;;;;4884860;29;20123;-79
2022/08/19 02:51:43;;;;;;;8.57;7.55;;;13.40;99.90;;;;;;4885233;29;20116;-79
2022/08/19 02:54:11;;;;;;;8.23;7.35;;;13.30;99.90;;;;;;4897257;29;20037;-79
2022/08/19 02:56:39;;;;;;;7.78;6.97;;;13.30;99.90;;;;;;4881613;29;20040;-79
2022/08/19 02:59:08;;;;;;;8.63;7.00;;;13.30;99.90;;;;;;4884696;29;20036;-81
2022/08/19 03:01:34;;;;;;;6.50;5.90;;;13.30;99.90;;;;;;4881512;29;20056;-80
2022/08/19 03:04:02;;;;;;;6.15;5.55;;;13.30;99.90;;;;;;4896232;29;20104;-81
2022/08/19 03:06:28;;;;;;;6.85;5.85;;;13.20;99.90;;;;;;4904654;29;20048;-81
2022/08/19 03:08:55;;;;;;;6.97;5.30;;;13.30;99.90;;;;;;4885777;29;20060;-80
2022/08/19 03:11:27;;;;;;;6.50;5.78;;;13.20;99.90;;;;;;4895794;29;20054;-81
2022/08/19 03:13:54;;;;;;;6.70;5.90;;;13.20;99.90;;;;;;4897475;29;20040;-81
2022/08/19 03:16:21;;;;;;;6.13;5.50;;;13.20;99.90;;;;;;4887412;29;20328;-81
2022/08/19 03:18:47;;;;;;;6.15;5.55;;;13.20;99.90;;;;;;4904831;29;20048;-81
2022/08/19 03:21:22;;;;;;;5.85;5.00;;;13.20;99.90;;;;;;4888560;29;20029;-81
2022/08/19 03:23:48;;;;;;;6.70;6.00;;;13.10;99.90;;;;;;4896485;29;20040;-80
2022/08/19 03:26:16;;;;;;;7.13;6.43;;;13.00;99.90;;;;;;4881392;29;20036;-81
2022/08/19 03:28:44;;;;;;;7.40;6.70;;;13.10;99.90;;;;;;4888255;29;20517;-81
2022/08/19 03:31:13;;;;;;;7.05;6.28;;;13.00;99.90;;;;;;4880076;29;20055;-81
2022/08/19 03:33:40;;;;;;;8.25;6.60;;;13.00;99.90;;;;;;4905663;29;20127;-80
2022/08/19 03:36:20;;;;;;;7.93;7.03;;;13.00;99.90;;;;;;4915468;29;20068;-80
2022/08/19 03:38:49;;;;;;;8.23;6.80;;;13.00;99.90;;;;;;4906107;29;20072;-80
2022/08/19 03:41:18;;;;;;;7.63;6.75;;;13.00;99.90;;;;;;4895889;29;20042;-80
2022/08/19 03:43:46;;;;;;;7.68;6.88;;;13.00;99.90;;;;;;4899474;29;20055;-80
2022/08/19 03:46:15;;;;;;;7.07;6.40;;;12.90;99.90;;;;;;4907387;29;20111;-80
2022/08/19 03:48:43;;;;;;;6.95;6.20;;;12.90;99.90;;;;;;4895084;29;20074;-80
2022/08/19 03:51:18;;;;;;;7.30;6.22;;;13.00;99.90;;;;;;4902943;29;20088;-80
2022/08/19 03:53:44;;;;;;;7.03;6.30;;;12.90;99.90;;;;;;4896142;29;20040;-80
2022/08/19 03:56:10;;;;;;;5.80;5.20;;;12.90;99.90;;;;;;4880740;29;20051;-80
2022/08/19 03:58:37;;;;;;;6.85;6.15;;;12.90;99.90;;;;;;4887962;29;20036;-80
2022/08/19 04:01:06;;;;;;;7.80;7.00;;;12.90;99.90;;;;;;4886990;29;20095;-80
2022/08/19 04:03:32;;;;;;;7.45;6.68;;;12.80;99.90;;;;;;4887380;29;20044;-80
2022/08/19 04:05:57;;;;;;;6.93;6.00;;;12.80;99.90;;;;;;4880808;29;20072;-80
2022/08/19 04:08:23;;;;;;;8.48;6.00;;;12.80;99.90;;;;;;4880685;29;20040;-80
2022/08/19 04:10:49;;;;;;;7.07;6.15;;;12.80;99.90;;;;;;4897759;29;20052;-80
2022/08/19 04:13:17;;;;;;;8.20;7.38;;;12.80;99.90;;;;;;4886158;29;20042;-80
2022/08/19 04:15:44;;;;;;;9.15;7.47;;;12.80;99.90;;;;;;4891528;29;20075;-80
2022/08/19 04:18:10;;;;;;;9.27;7.57;;;12.80;99.90;;;;;;4892445;29;20329;-80
2022/08/19 04:20:45;;;;;;;10.15;7.60;;;12.80;99.90;;;;;;4905084;29;20052;-80
2022/08/19 04:23:12;;;;;;;9.93;8.10;;;12.70;99.90;;;;;;4895784;29;20056;-80
2022/08/19 04:25:40;;;;;;;9.80;8.10;;;12.70;99.90;;;;;;4880931;29;20067;-79
2022/08/19 04:28:09;;;;;;;12.75;9.80;;;12.70;99.90;;;;;;4890504;29;20437;-81
2022/08/19 04:30:47;;;;;;;11.23;9.95;;;12.80;99.90;;;;;;4893473;29;20523;-81
2022/08/19 04:33:15;;;;;;;12.40;10.32;;;12.90;99.90;;;;;;4885726;29;20040;-82
2022/08/19 04:35:43;;;;;;;11.55;9.80;;;12.90;99.90;;;;;;4879738;29;20072;-80
2022/08/19 04:38:11;;;;;;;12.27;9.77;;;12.90;99.90;;;;;;4877771;29;20035;-80
2022/08/19 04:43:30;;;;;;;10.43;9.27;;;13.10;99.90;;;;;;4895132;29;20136;-80
2022/08/19 04:45:56;;;;;;;11.43;9.85;;;13.20;99.90;;;;;;4887408;29;20151;-80
2022/08/19 04:48:30;;;;;;;11.23;9.48;;;13.10;99.90;;;;;;4895388;29;20048;-80
2022/08/19 04:50:57;;;;;;;10.20;8.77;;;13.10;99.90;;;;;;4893868;29;20041;-80
2022/08/19 04:53:28;;;;;;;12.05;9.80;;;13.10;99.90;;;;;;4882784;29;20059;-80
2022/08/19 04:55:56;;;;;;;11.32;9.65;;;13.10;99.90;;;;;;4891136;29;20424;-80
2022/08/19 04:58:23;;;;;;;10.43;9.38;;;13.10;99.90;;;;;;4894032;29;20033;-80
2022/08/19 05:00:48;;;;;;;10.40;9.15;;;13.20;99.90;;;;;;4888637;29;20116;-79
2022/08/19 05:03:16;;;;;;;11.13;9.95;;;13.20;99.90;;;;;;4904340;29;20039;-80
2022/08/19 05:05:48;;;;;;;11.27;10.07;;;13.20;99.90;;;;;;4906444;29;20080;-80
2022/08/19 05:08:22;;;;;;;9.05;7.93;;;13.20;99.90;;;;;;4906163;29;20047;-80
2022/08/19 05:10:50;;;;;;;9.45;7.85;;;13.30;99.90;;;;;;4899423;29;20037;-79
2022/08/19 05:13:19;;;;;;;8.30;7.15;;;13.30;99.90;;;;;;4902799;29;20061;-81
2022/08/19 05:15:53;;;;;;;8.68;7.78;;;13.20;99.90;;;;;;4887258;29;20044;-81
2022/08/19 05:23:53;;;;;;;7.40;6.40;;;13.30;99.90;;;;;;4905394;29;20120;-81
2022/08/19 05:26:19;;;;;;;6.72;5.82;;;13.20;99.90;;;;;;4909980;29;20056;-81
2022/08/19 05:28:44;;;;;;;7.32;6.55;;;13.30;99.90;;;;;;4885761;29;20049;-81
2022/08/19 05:31:10;;;;;;;7.80;7.00;;;13.30;99.90;;;;;;4885639;29;20036;-81
2022/08/19 05:33:35;;;;;;;8.02;7.15;;;13.40;99.90;;;;;;4904474;29;20040;-81
2022/08/19 05:36:02;;;;;;;12.13;9.02;;;13.40;99.90;;;;;;4907421;29;20040;-81
2022/08/19 05:38:28;;;;;;;10.77;8.82;;;13.40;99.90;;;;;;4902137;29;20124;-81
2022/08/19 05:40:54;;;;;;;12.05;10.20;;;13.50;99.90;;;;;;4902630;29;20115;-81
2022/08/19 05:43:19;;;;;;;14.98;12.70;;;13.50;99.90;;;;;;4898971;29;20091;-79
2022/08/19 05:45:45;;;;;;;14.63;11.63;;;13.60;99.90;;;;;;4902684;29;20044;-80
2022/08/19 05:48:12;;;;;;;13.77;11.90;;;13.70;99.90;;;;;;4903069;29;20092;-80
2022/08/19 05:50:39;;;;;;;16.35;12.70;;;13.80;99.90;;;;;;4898827;29;20044;-79
2022/08/19 05:53:05;;;;;;;17.00;13.43;;;13.90;99.90;;;;;;4885619;29;20114;-79
2022/08/19 05:55:31;;;;;;;16.80;13.48;;;14.00;99.90;;;;;;4882639;29;20088;-79
2022/08/19 05:57:57;;;;;;;19.17;14.40;;;14.10;99.90;;;;;;4904832;29;20051;-80
2022/08/19 06:00:23;;;;;;;18.23;12.82;;;14.20;99.90;;;;;;4890645;29;20040;-80
2022/08/19 06:02:49;;;;;;;18.25;13.55;;;14.30;99.90;;;;;;4885019;29;20703;-79
2022/08/19 06:05:14;;;;;;;20.48;13.70;;;14.50;99.90;;;;;;4891976;29;20047;-79
2022/08/19 06:07:40;;;;;;;18.95;14.45;;;14.60;99.90;;;;;;4884376;29;20510;-79
2022/08/19 06:10:08;;;;;;;19.65;14.05;;;14.50;99.90;;;;;;4897879;29;20047;-82
2022/08/19 06:12:35;;;;;;;18.08;13.65;;;14.70;99.90;;;;;;4898459;29;20120;-79
2022/08/19 06:15:04;;;;;;;19.48;15.00;;;14.80;99.90;;;;;;4883168;29;20132;-80
2022/08/19 06:17:30;;;;;;;19.65;14.68;;;14.90;99.90;;;;;;4886770;29;20382;-80
2022/08/19 06:19:56;;;;;;;20.77;14.80;;;15.00;99.90;;;;;;4906269;29;20043;-80
2022/08/19 06:22:22;;;;;;;21.05;15.50;;;15.10;99.90;;;;;;4899539;29;20147;-80
2022/08/19 06:24:52;;;;;;;22.13;16.27;;;15.20;99.90;;;;;;4888577;29;20036;-80
2022/08/19 06:27:18;;;;;;;24.48;16.88;;;15.30;99.90;;;;;;4904389;29;20051;-80
2022/08/19 06:29:44;;;;;;;23.63;16.05;;;15.40;99.90;;;;;;4889935;29;20488;-80
2022/08/19 06:32:10;;;;;;;22.23;15.85;;;15.50;99.90;;;;;;4896297;29;20374;-80
2022/08/19 06:34:36;;;;;;;23.33;16.23;;;15.60;99.90;;;;;;4906552;29;20045;-80
2022/08/19 06:37:02;;;;;;;23.85;15.85;;;15.70;99.90;;;;;;4884912;29;20043;-80
2022/08/19 06:39:34;;;;;;;22.38;16.30;;;15.80;99.90;;;;;;4898351;29;20437;-81
2022/08/19 06:42:03;;;;;;;27.20;18.17;;;15.90;99.90;;;;;;4878851;29;20049;-81
2022/08/19 06:44:34;;;;;;;29.00;18.50;;;16.10;99.90;;;;;;4878953;29;20100;-81
2022/08/19 06:47:03;;;;;;;28.50;18.55;;;16.20;99.90;;;;;;4879300;29;20071;-81
2022/08/19 06:49:30;;;;;;;26.83;18.80;;;16.30;99.90;;;;;;4881161;29;20127;-81
2022/08/19 06:51:58;;;;;;;25.35;18.10;;;16.40;99.90;;;;;;4895725;29;20403;-81
2022/08/19 06:54:25;;;;;;;27.58;19.02;;;16.60;99.90;;;;;;4894232;29;20037;-81
2022/08/19 06:56:51;;;;;;;27.58;18.25;;;16.80;99.90;;;;;;4880433;29;20100;-81
2022/08/19 06:59:26;;;;;;;24.13;17.45;;;16.90;99.90;;;;;;4895628;29;20049;-81
2022/08/19 07:01:54;;;;;;;21.70;16.15;;;17.00;99.90;;;;;;4897412;29;20044;-81
2022/08/19 07:04:23;;;;;;;24.08;18.27;;;17.10;99.90;;;;;;4881372;29;20045;-79
2022/08/19 07:06:49;;;;;;;23.25;16.88;;;17.20;99.90;;;;;;4904632;29;20382;-83
2022/08/19 07:09:18;;;;;;;24.50;18.15;;;17.30;99.90;;;;;;4896358;29;20048;-77
2022/08/19 07:11:49;;;;;;;22.95;17.33;;;17.40;99.90;;;;;;4900293;29;20053;-82
2022/08/19 07:14:17;;;;;;;20.75;16.35;;;17.50;99.90;;;;;;4907338;29;20123;-82
2022/08/19 07:16:45;;;;;;;20.42;16.95;;;17.60;99.90;;;;;;4898376;29;20043;-82
2022/08/19 07:19:12;;;;;;;19.58;15.98;;;17.70;99.90;;;;;;4881423;29;20048;-82
2022/08/19 07:21:38;;;;;;;19.02;16.40;;;17.70;99.90;;;;;;4897601;29;20051;-81
2022/08/19 07:24:04;;;;;;;18.67;16.13;;;17.90;99.90;;;;;;4881548;29;20044;-82
2022/08/19 07:26:33;;;;;;;19.90;16.80;;;17.90;99.90;;;;;;4897454;29;20052;-82
2022/08/19 07:29:00;;;;;;;18.23;16.15;;;18.00;99.90;;;;;;4881571;29;20040;-81
2022/08/19 07:31:27;;;;;;;17.35;15.25;;;18.10;99.90;;;;;;4896833;29;20040;-82
2022/08/19 07:33:55;;;;;;;17.92;15.85;;;18.20;99.90;;;;;;4881833;29;20065;-81
2022/08/19 07:36:31;;;;;;;17.38;15.57;;;18.20;99.90;;;;;;4897429;29;20044;-81
2022/08/19 07:38:59;;;;;;;17.75;15.52;;;18.30;99.90;;;;;;4881858;29;20501;-81
2022/08/19 07:41:28;;;;;;;17.92;15.93;;;18.40;99.90;;;;;;4896070;29;20047;-81
2022/08/19 07:43:54;;;;;;;17.65;15.32;;;18.50;99.90;;;;;;4881517;29;20033;-81
2022/08/19 07:46:20;;;;;;;16.55;14.50;;;18.60;99.90;;;;;;4897371;29;20497;-81
2022/08/19 07:48:49;;;;;;;16.23;14.52;;;18.70;99.90;;;;;;4881308;29;20111;-81
2022/08/19 07:51:18;;;;;;;16.15;14.45;;;18.70;99.90;;;;;;4896760;29;20128;-82
2022/08/19 07:53:45;;;;;;;16.15;14.18;;;18.80;99.90;;;;;;4897223;29;20406;-81
2022/08/19 07:56:14;;;;;;;16.25;14.00;;;18.90;99.90;;;;;;4881355;29;20588;-81
2022/08/19 07:58:42;;;;;;;17.13;14.75;;;19.00;99.90;;;;;;4895993;29;20123;-81
2022/08/19 08:01:11;;;;;;;14.98;13.48;;;19.10;99.90;;;;;;4891026;29;20481;-80
2022/08/19 08:09:20;;;;;;;15.38;13.77;;;19.50;99.90;;;;;;4898680;29;20104;-81
2022/08/19 08:11:52;;;;;;;16.65;14.85;;;19.60;99.90;;;;;;4898931;29;20040;-81
2022/08/19 08:14:24;;;;;;;16.43;14.83;;;19.70;99.90;;;;;;4912882;29;20051;-81
2022/08/19 08:16:51;;;;;;;16.40;14.70;;;19.80;99.90;;;;;;4904076;29;20048;-80
2022/08/19 08:19:19;;;;;;;15.30;13.70;;;19.90;99.90;;;;;;4903352;29;20041;-79
2022/08/19 08:21:45;;;;;;;14.90;13.32;;;20.10;99.90;;;;;;4898656;29;20112;-82
2022/08/19 08:24:11;;;;;;;15.38;13.88;;;20.20;99.90;;;;;;4907007;29;20044;-81
2022/08/19 08:26:37;;;;;;;15.13;13.63;;;20.30;99.90;;;;;;4898614;29;20059;-80
2022/08/19 08:29:02;;;;;;;15.05;13.55;;;20.50;99.90;;;;;;4878279;29;20048;-81
2022/08/19 08:31:28;;;;;;;14.13;12.73;;;21.10;99.90;;;;;;4901986;29;20040;-80
2022/08/19 08:33:54;;;;;;;15.18;13.57;;;21.90;99.90;;;;;;4892669;29;20485;-81
2022/08/19 08:36:20;;;;;;;14.57;13.18;;;22.70;99.90;;;;;;4901599;29;20028;-82
2022/08/19 08:38:46;;;;;;;13.20;11.90;;;23.50;99.90;;;;;;4893597;29;20116;-83
2022/08/19 08:41:33;;;;;;;13.80;12.40;;;24.10;99.90;;;;;;4879633;29;20060;-83
2022/08/19 08:43:59;;;;;;;12.30;11.10;;;24.90;99.90;;;;;;4878704;29;20045;-80
2022/08/19 08:46:39;;;;;;;11.57;10.38;;;25.40;99.90;;;;;;4879796;29;20093;-81
2022/08/19 08:49:20;;;;;;;11.57;10.55;;;26.00;99.90;;;;;;4893341;29;20048;-80
2022/08/19 08:52:07;;;;;;;11.45;10.32;;;26.40;99.90;;;;;;4903804;29;20058;-81
2022/08/19 08:54:39;;;;;;;10.77;9.70;;;26.90;99.90;;;;;;4896006;29;20043;-81
2022/08/19 08:57:10;;;;;;;11.07;9.98;;;27.20;99.90;;;;;;4914400;29;20036;-80
2022/08/19 08:59:39;;;;;;;10.17;9.17;;;27.50;99.90;;;;;;4912292;29;20091;-81
2022/08/19 09:02:04;;;;;;;11.07;9.98;;;27.70;99.90;;;;;;4900588;29;20134;-80
2022/08/19 09:04:30;;;;;;;9.70;8.70;;;27.90;99.90;;;;;;4881354;29;20325;-82
2022/08/19 09:07:21;;;;;;;10.00;9.00;;;28.20;99.90;;;;;;4880065;29;20072;-80
2022/08/19 09:09:50;;;;;;;8.73;7.82;;;28.40;99.90;;;;;;4885361;29;20068;-80
2022/08/19 09:12:57;;;;;;;8.88;8.05;;;28.40;99.90;;;;;;4904041;29;20127;-80
2022/08/19 09:15:32;;;;;;;9.07;8.18;;;28.60;99.90;;;;;;4878411;29;20052;-81
2022/08/19 09:18:06;;;;;;;9.75;8.85;;;28.80;99.90;;;;;;4895225;29;20037;-80
2022/08/19 09:20:32;;;;;;;9.55;8.65;;;29.00;99.90;;;;;;4879581;29;20505;-79
2022/08/19 09:22:58;;;;;;;9.27;8.48;;;29.10;99.90;;;;;;4898391;29;20709;-81
2022/08/19 09:25:25;;;;;;;8.38;7.57;;;29.20;99.90;;;;;;4882742;29;20072;-81
2022/08/19 09:27:56;;;;;;;7.90;7.10;;;29.30;99.90;;;;;;4898076;29;20075;-81
2022/08/19 09:30:27;;;;;;;8.07;7.28;;;29.40;99.90;;;;;;4883052;29;20049;-81
2022/08/19 09:32:54;;;;;;;8.00;7.20;;;29.50;99.90;;;;;;4882079;29;20075;-78
2022/08/19 09:35:22;;;;;;;7.15;6.38;;;29.70;99.90;;;;;;4906873;29;20036;-79
2022/08/19 09:37:49;;;;;;;9.45;8.25;;;29.90;99.90;;;;;;4883179;29;20037;-79
2022/08/19 09:40:15;;;;;;;9.30;8.40;;;30.00;97.90;;;;;;4902940;29;20036;-78
2022/08/19 09:42:43;;;;;;;9.45;8.55;;;30.00;94.90;;;;;;4892101;29;20044;-79
2022/08/19 09:45:09;;;;;;;8.65;7.75;;;30.00;93.90;;;;;;4896270;29;20045;-79
2022/08/19 09:47:37;;;;;;;8.20;7.50;;;30.00;93.70;;;;;;4897656;29;20093;-80
2022/08/19 09:50:05;;;;;;;7.90;7.20;;;30.10;93.80;;;;;;4886927;29;20139;-80
2022/08/19 09:52:31;;;;;;;7.90;7.20;;;30.10;91.80;;;;;;4891649;29;20072;-79
2022/08/19 09:54:57;;;;;;;8.60;7.70;;;30.20;92.00;;;;;;4897763;29;20501;-79
2022/08/19 09:57:22;;;;;;;7.53;6.82;;;30.30;91.30;;;;;;4888195;29;20047;-79
2022/08/19 09:59:48;;;;;;;7.57;6.88;;;30.40;90.50;;;;;;4899165;29;20497;-80
2022/08/19 10:02:13;;;;;;;7.55;6.85;;;30.40;88.50;;;;;;4900091;29;20044;-80
2022/08/19 10:07:24;;;;;;;7.97;7.18;;;30.50;86.70;;;;;;4896916;29;20135;-80
2022/08/19 10:09:50;;;;;;;7.60;6.90;;;30.60;87.00;;;;;;4905095;29;20119;-79
2022/08/19 10:12:15;;;;;;;6.55;5.95;;;30.70;85.20;;;;;;4904224;29;20037;-78
2022/08/19 10:14:42;;;;;;;7.90;7.10;;;30.80;83.20;;;;;;4904483;29;20048;-78
2022/08/19 10:17:08;;;;;;;7.85;7.05;;;30.90;83.00;;;;;;4909287;29;20138;-78
2022/08/19 10:19:35;;;;;;;7.78;6.97;;;31.00;83.20;;;;;;4915143;29;20136;-79
2022/08/19 10:22:07;;;;;;;8.65;7.85;;;31.10;82.20;;;;;;4910846;29;20131;-79
2022/08/19 10:24:34;;;;;;;8.95;8.05;;;31.20;77.80;;;;;;4918675;29;20108;-77
2022/08/19 10:27:03;;;;;;;8.18;7.47;;;31.10;78.60;;;;;;4905000;29;20036;-78
2022/08/19 10:29:31;;;;;;;8.77;7.97;;;30.70;77.80;;;;;;4908728;29;20124;-78
2022/08/19 10:31:59;;;;;;;9.10;8.30;;;30.50;79.80;;;;;;4882049;29;20044;-78
2022/08/19 10:34:26;;;;;;;9.65;8.75;;;30.60;80.40;;;;;;4896521;29;20051;-78
2022/08/19 10:36:52;;;;;;;9.93;9.02;;;30.60;79.50;;;;;;4897871;29;20092;-79
2022/08/19 10:39:17;;;;;;;11.15;10.05;;;30.40;79.10;;;;;;4897221;29;20036;-77
2022/08/19 10:41:43;;;;;;;10.30;9.45;;;30.10;79.30;;;;;;4883468;29;20461;-78
2022/08/19 10:44:11;;;;;;;10.25;9.23;;;29.80;78.70;;;;;;4913781;29;20044;-78
2022/08/19 10:46:42;;;;;;;10.02;9.02;;;29.50;79.50;;;;;;4911899;29;20080;-79
2022/08/19 10:49:09;;;;;;;9.65;8.80;;;29.60;78.80;;;;;;4880928;29;21933;-78
2022/08/19 10:54:20;;;;;;;8.48;7.68;;;30.00;80.00;;;;;;4898546;29;20135;-79
2022/08/19 10:56:51;;;;;;;8.90;8.10;;;30.20;78.60;;;;;;4897246;29;20047;-78
2022/08/19 10:59:21;;;;;;;10.38;9.48;;;30.30;78.70;;;;;;4897865;29;20036;-78
2022/08/19 11:01:47;;;;;;;9.85;8.95;;;30.40;76.30;;;;;;4896195;29;20127;-78
2022/08/19 11:04:17;;;;;;;9.63;8.73;;;30.40;77.40;;;;;;4897798;29;20040;-80
2022/08/19 11:06:47;;;;;;;10.52;9.63;;;30.40;76.10;;;;;;4882337;29;20088;-79
2022/08/19 11:09:24;;;;;;;10.65;9.55;;;30.50;76.40;;;;;;4896486;29;20055;-78
2022/08/19 11:11:52;;;;;;;12.18;11.07;;;30.60;74.90;;;;;;4897676;29;20514;-78
2022/08/19 11:14:20;;;;;;;10.50;9.43;;;30.70;75.60;;;;;;4897963;29;20513;-78
2022/08/19 11:16:46;;;;;;;10.43;9.52;;;30.70;75.50;;;;;;4882319;29;20124;-80
2022/08/19 11:19:13;;;;;;;10.15;9.23;;;30.70;74.90;;;;;;4874268;29;20131;-78
2022/08/19 11:21:41;;;;;;;11.35;10.35;;;30.70;74.80;;;;;;4897090;29;20529;-78
2022/08/19 11:24:12;;;;;;;11.93;10.75;;;30.70;74.40;;;;;;4897259;29;20048;-79
2022/08/19 11:26:39;;;;;;;11.77;10.68;;;30.70;74.20;;;;;;4881653;29;20049;-78
2022/08/19 11:29:11;;;;;;;12.88;11.68;;;30.70;73.70;;;;;;4880700;29;20052;-78
2022/08/19 11:31:38;;;;;;;12.18;11.07;;;30.60;74.30;;;;;;4896849;29;20052;-78
2022/08/19 11:34:07;;;;;;;11.27;10.18;;;30.70;74.20;;;;;;4881073;29;20119;-78
2022/08/19 11:36:36;;;;;;;11.20;10.10;;;30.80;73.90;;;;;;4881074;29;20036;-78
2022/08/19 11:39:04;;;;;;;10.75;9.75;;;30.90;74.20;;;;;;4895345;29;20028;-78
2022/08/19 11:41:30;;;;;;;10.80;9.80;;;31.20;73.80;;;;;;4896114;29;20041;-78
2022/08/19 11:43:56;;;;;;;12.45;11.25;;;31.40;73.50;;;;;;4896411;29;20545;-78
2022/08/19 11:46:24;;;;;;;10.00;9.13;;;31.40;72.40;;;;;;4896354;29;20037;-77
2022/08/19 11:48:50;;;;;;;9.90;9.00;;;31.20;71.60;;;;;;4895176;29;20049;-78
2022/08/19 11:51:20;;;;;;;9.27;8.27;;;31.10;71.70;;;;;;4896211;29;20146;-78
2022/08/19 11:53:46;;;;;;;12.27;11.15;;;30.90;71.20;;;;;;4895555;29;20079;-78
2022/08/19 11:56:12;;;;;;;12.15;10.95;;;30.80;72.00;;;;;;4896519;29;20528;-78
2022/08/19 11:58:38;;;;;;;11.20;10.20;;;30.60;72.20;;;;;;4896343;29;20041;-78
2022/08/19 12:01:08;;;;;;;9.40;8.52;;;30.60;72.10;;;;;;4896463;29;20055;-77
2022/08/19 12:03:35;;;;;;;8.80;7.90;;;30.50;72.30;;;;;;4894592;29;20102;-78
2022/08/19 12:06:09;;;;;;;9.13;8.20;;;30.20;72.30;;;;;;4895936;29;20306;-77
2022/08/19 12:08:35;;;;;;;11.70;10.60;;;30.10;72.20;;;;;;4895725;29;20048;-77
2022/08/19 12:11:01;;;;;;;10.00;9.00;;;29.90;71.70;;;;;;4879453;29;20048;-77
2022/08/19 12:13:30;;;;;;;9.68;8.77;;;29.80;72.40;;;;;;4880219;29;20581;-77
2022/08/19 12:15:58;;;;;;;10.65;9.60;;;29.70;73.20;;;;;;4895946;29;20040;-78
2022/08/19 12:18:24;;;;;;;10.80;9.80;;;29.70;72.60;;;;;;4895675;29;20041;-77
2022/08/19 12:20:51;;;;;;;9.77;8.77;;;29.80;73.30;;;;;;4895328;29;20102;-78
2022/08/19 12:23:17;;;;;;;10.57;9.57;;;29.80;73.60;;;;;;4895787;29;20385;-78
2022/08/19 12:25:52;;;;;;;9.90;8.90;;;30.00;73.70;;;;;;4895834;29;20047;-78
2022/08/19 12:28:19;;;;;;;9.45;8.45;;;30.40;73.10;;;;;;4895450;29;20084;-77
2022/08/19 12:30:46;;;;;;;9.10;7.75;;;30.60;72.80;;;;;;4894739;29;20045;-78
2022/08/19 12:33:13;;;;;;;10.02;8.57;;;30.60;72.10;;;;;;4894816;29;20029;-78
2022/08/19 12:35:41;;;;;;;9.48;7.07;;;30.50;72.40;;;;;;4895403;29;20044;-78
2022/08/19 12:38:07;;;;;;;8.93;8.02;;;30.50;72.30;;;;;;4880090;29;20075;-78
2022/08/19 12:40:33;;;;;;;7.00;6.30;;;30.50;71.70;;;;;;4895496;29;20088;-78
2022/08/19 12:42:59;;;;;;;6.38;5.75;;;30.50;71.20;;;;;;4894768;29;20453;-78
2022/08/19 12:45:24;;;;;;;8.15;7.35;;;30.40;71.60;;;;;;4894926;29;20569;-77
2022/08/19 12:47:51;;;;;;;7.50;6.70;;;30.40;72.40;;;;;;4894265;29;20041;-77
2022/08/19 12:50:17;;;;;;;7.95;7.20;;;30.50;72.40;;;;;;4893541;29;20383;-78
2022/08/19 12:52:42;;;;;;;7.10;6.50;;;30.50;72.40;;;;;;4894355;29;20037;-77
2022/08/19 12:55:09;;;;;;;9.25;6.22;;;30.40;71.60;;;;;;4895328;29;20454;-78
2022/08/19 12:57:35;;;;;;;7.50;6.80;;;30.30;72.90;;;;;;4894663;29;20375;-78
2022/08/19 13:00:11;;;;;;;8.30;6.82;;;30.40;71.10;;;;;;4879013;29;20521;-78
2022/08/19 13:02:38;;;;;;;7.22;6.53;;;30.30;71.20;;;;;;4895057;29;20052;-79
2022/08/19 13:05:06;;;;;;;7.05;6.28;;;30.30;71.10;;;;;;4895526;29;20397;-78
2022/08/19 13:07:32;;;;;;;7.47;6.32;;;30.20;71.30;;;;;;4894601;29;20516;-79
2022/08/19 13:09:58;;;;;;;8.55;7.25;;;30.00;71.90;;;;;;4895021;29;20056;-78
2022/08/19 13:12:26;;;;;;;6.93;6.22;;;30.10;72.30;;;;;;4879548;29;20557;-79
2022/08/19 13:14:52;;;;;;;6.72;6.00;;;30.20;70.50;;;;;;4895491;29;20127;-78
2022/08/19 13:17:18;;;;;;;7.47;5.72;;;30.40;70.00;;;;;;4895238;29;20052;-78
2022/08/19 13:19:43;;;;;;;5.80;5.13;;;30.50;70.80;;;;;;4894199;29;20132;-78
2022/08/19 13:22:09;;;;;;;6.35;5.65;;;30.80;70.50;;;;;;4894941;29;20509;-78
2022/08/19 13:24:36;;;;;;;5.30;4.80;;;31.00;70.00;;;;;;4895464;29;20037;-78
2022/08/19 13:27:02;;;;;;;6.13;5.53;;;31.20;69.60;;;;;;4894586;29;20187;-79
2022/08/19 13:34:56;;;;;;;5.90;5.28;;;31.50;67.10;;;;;;4894192;29;20561;-78
2022/08/19 13:37:40;;;;;;;7.53;6.82;;;31.70;67.30;;;;;;4894900;29;20056;-78
2022/08/19 13:40:12;;;;;;;6.03;5.43;;;31.90;67.10;;;;;;4888808;29;20047;-78
2022/08/19 13:42:41;;;;;;;6.63;5.93;;;32.10;67.10;;;;;;4894952;29;20177;-79
2022/08/19 13:45:07;;;;;;;7.78;6.78;;;31.90;67.40;;;;;;4894331;29;20040;-78
2022/08/19 13:47:34;;;;;;;7.35;6.65;;;31.80;68.10;;;;;;4890555;29;20049;-78